createdAt,value
2017-11-05T00:54:59.484Z,42.17
2017-11-05T00:57:40.905Z,39.28
2017-11-05T01:04:08.538Z,36.10
2017-11-05T01:06:58.597Z,34.88
2017-11-05T01:15:58.470Z,32.70
2017-11-05T01:21:41.305Z,32.30
2017-11-05T01:30:58.284Z,30.33
2017-11-05T01:39:59.061Z,33.83
2017-11-05T01:42:39.806Z,34.80
2017-11-05T01:45:07.145Z,34.88
2017-11-05T01:57:59.176Z,34.28
2017-11-05T02:00:58.570Z,35.92
2017-11-05T02:06:58.897Z,34.80
2017-11-05T02:22:03.739Z,32.45
2017-11-05T02:42:59.458Z,33.58
2017-11-05T02:45:42.514Z,32.85
2017-11-05T02:48:48.977Z,33.33
2017-11-05T02:52:00.113Z,34.80
2017-11-05T02:57:39.507Z,35.90
2017-11-05T03:00:06.284Z,32.45
2017-11-05T03:03:01.148Z,32.15
2017-11-05T03:05:52.828Z,32.75
2017-11-05T03:08:38.476Z,31.75
2017-11-05T03:11:05.105Z,31.55
2017-11-05T03:13:42.726Z,33.38
2017-11-05T03:16:39.216Z,33.80
2017-11-05T03:19:07.516Z,30.33
2017-11-05T03:21:43.968Z,37.72
2017-11-05T03:28:00.802Z,34.63
2017-11-05T03:31:07.662Z,32.40
2017-11-05T03:33:40.987Z,31.45
2017-11-05T03:36:39.839Z,34.17
2017-11-05T03:43:00.781Z,28.95
2017-11-05T03:54:41.217Z,30.33
2017-11-05T04:01:00.500Z,31.30
2017-11-05T04:06:43.251Z,30.12
2017-11-05T04:09:10.484Z,28.65
2017-11-05T04:11:36.902Z,36.67
2017-11-05T04:14:03.353Z,28.17
2017-11-05T04:16:29.810Z,27.23
2017-11-05T04:18:56.252Z,31.23
2017-11-05T04:21:22.699Z,26.12
2017-11-05T04:23:50.515Z,25.75
2017-11-05T04:26:17.723Z,31.90
2017-11-05T04:28:44.915Z,28.08
2017-11-05T04:31:11.389Z,29.37
2017-11-05T04:33:37.867Z,30.55
2017-11-05T04:36:04.351Z,33.72
2017-11-05T04:38:30.880Z,29.37
2017-11-05T04:40:57.325Z,31.30
2017-11-05T04:43:23.787Z,28.40
2017-11-05T04:45:50.975Z,30.10
2017-11-05T04:48:17.411Z,31.02
2017-11-05T04:50:44.625Z,28.25
2017-11-05T04:53:11.056Z,27.20
2017-11-05T04:55:37.531Z,32.88
2017-11-05T04:58:04.007Z,26.80
2017-11-05T05:00:31.360Z,29.10
2017-11-05T05:02:58.531Z,30.67
2017-11-05T05:05:24.975Z,25.62
2017-11-05T05:07:51.447Z,31.73
2017-11-05T05:10:18.079Z,28.55
2017-11-05T05:12:44.497Z,27.20
2017-11-05T05:15:10.950Z,28.60
2017-11-05T05:17:37.420Z,27.48
2017-11-05T05:20:04.651Z,28.30
2017-11-05T05:22:31.119Z,25.73
2017-11-05T05:24:57.605Z,32.25
2017-11-05T05:27:24.038Z,27.13
2017-11-05T05:29:50.476Z,30.05
2017-11-05T05:32:16.944Z,26.62
2017-11-05T05:34:44.135Z,26.60
2017-11-05T05:37:10.604Z,28.55
2017-11-05T05:39:37.120Z,30.85
2017-11-05T05:42:04.319Z,29.30
2017-11-05T05:44:30.778Z,27.35
2017-11-05T05:46:57.201Z,26.92
2017-11-05T05:49:23.646Z,28.80
2017-11-05T05:51:50.095Z,24.37
2017-11-05T05:54:16.544Z,27.08
2017-11-05T05:56:43.016Z,25.35
2017-11-05T05:59:10.248Z,27.42
2017-11-05T06:01:36.747Z,28.05
2017-11-05T06:04:03.238Z,26.33
2017-11-05T06:06:30.432Z,26.85
2017-11-05T06:08:57.021Z,28.12
2017-11-05T06:11:23.463Z,27.95
2017-11-05T06:13:49.911Z,29.20
2017-11-05T06:16:16.382Z,32.75
2017-11-05T06:18:43.699Z,23.12
2017-11-05T06:21:10.221Z,26.37
2017-11-05T06:23:36.687Z,37.63
2017-11-05T06:26:03.196Z,27.67
2017-11-05T06:28:29.804Z,28.35
2017-11-05T06:30:57.104Z,26.00
2017-11-05T06:33:23.599Z,28.12
2017-11-05T06:35:50.104Z,27.15
2017-11-05T06:38:17.528Z,27.87
2017-11-05T06:40:44.035Z,28.92
2017-11-05T06:43:10.707Z,30.62
2017-11-05T06:45:38.052Z,32.05
2017-11-05T06:48:04.576Z,28.75
2017-11-05T06:50:31.987Z,30.88
2017-11-05T06:52:59.333Z,32.97
2017-11-05T06:55:25.952Z,30.73
2017-11-05T06:57:52.528Z,37.00
2017-11-05T07:00:19.869Z,38.13
2017-11-05T07:02:46.493Z,30.48
2017-11-05T07:05:13.836Z,32.92
2017-11-05T07:07:41.136Z,36.13
2017-11-05T07:10:08.369Z,36.13
2017-11-05T07:12:34.880Z,33.50
2017-11-05T07:15:01.393Z,33.13
2017-11-05T07:17:28.172Z,35.17
2017-11-05T07:19:54.869Z,35.90
2017-11-05T07:22:21.512Z,35.63
2017-11-05T07:24:47.982Z,36.70
2017-11-05T07:27:15.468Z,36.58
2017-11-05T07:29:42.031Z,36.45
2017-11-05T07:32:08.484Z,36.28
2017-11-05T07:34:34.977Z,36.42
2017-11-05T07:37:02.214Z,36.35
2017-11-05T07:39:29.575Z,38.90
2017-11-05T07:41:56.828Z,36.83
2017-11-05T07:44:23.337Z,33.33
2017-11-05T07:46:49.811Z,35.07
2017-11-05T07:49:16.349Z,41.15
2017-11-05T07:51:42.817Z,36.08
2017-11-05T07:54:09.408Z,40.80
2017-11-05T07:56:35.914Z,35.88
2017-11-05T07:59:02.604Z,39.80
2017-11-05T08:01:29.112Z,36.03
2017-11-05T08:03:55.712Z,37.47
2017-11-05T08:06:22.996Z,39.03
2017-11-05T08:08:49.591Z,37.00
2017-11-05T08:11:16.908Z,36.25
2017-11-05T08:13:43.413Z,36.47
2017-11-05T08:16:10.221Z,35.67
2017-11-05T08:18:36.972Z,34.10
2017-11-05T08:21:03.432Z,38.37
2017-11-05T08:23:30.695Z,35.23
2017-11-05T08:25:58.032Z,32.87
2017-11-05T08:28:26.032Z,35.20
2017-11-05T08:30:52.780Z,35.13
2017-11-05T08:33:19.421Z,42.57
2017-11-05T08:35:46.000Z,40.70
2017-11-05T08:38:13.262Z,47.53
2017-11-05T08:40:40.596Z,38.03
2017-11-05T08:43:07.234Z,38.73
2017-11-05T08:45:34.477Z,36.80
2017-11-05T08:48:00.973Z,37.80
2017-11-05T08:50:27.443Z,37.77
2017-11-05T08:52:53.912Z,38.73
2017-11-05T08:55:20.351Z,38.90
2017-11-05T08:57:46.972Z,40.53
2017-11-05T09:00:13.472Z,37.53
2017-11-05T09:02:39.984Z,38.03
2017-11-05T09:05:09.676Z,36.93
2017-11-05T09:07:36.989Z,36.37
2017-11-05T09:10:03.457Z,37.60
2017-11-05T09:12:29.908Z,37.20
2017-11-05T09:15:00.344Z,39.83
2017-11-05T09:17:28.581Z,36.03
2017-11-05T09:19:55.104Z,35.50
2017-11-05T09:22:22.497Z,37.40
2017-11-05T09:24:49.672Z,35.33
2017-11-05T09:27:16.109Z,35.30
2017-11-05T09:29:42.790Z,36.00
2017-11-05T09:32:10.044Z,201.00
2017-11-05T09:34:36.728Z,41.77
2017-11-05T09:37:03.253Z,35.27
2017-11-05T09:39:29.779Z,34.50
2017-11-05T09:41:56.956Z,36.80
2017-11-05T09:44:23.612Z,34.83
2017-11-05T09:46:51.065Z,35.27
2017-11-05T09:49:17.760Z,33.40
2017-11-05T09:51:47.924Z,32.67
2017-11-05T09:54:14.363Z,29.63
2017-11-05T09:56:40.907Z,27.00
2017-11-05T09:59:07.476Z,26.23
2017-11-05T10:01:34.689Z,26.87
2017-11-05T10:04:01.260Z,24.97
2017-11-05T10:06:27.752Z,24.00
2017-11-05T10:08:54.199Z,23.73
2017-11-05T10:11:20.711Z,24.73
2017-11-05T10:13:47.189Z,22.60
2017-11-05T10:16:13.665Z,23.80
2017-11-05T10:18:40.098Z,24.97
2017-11-05T10:21:06.580Z,24.40
2017-11-05T10:23:33.033Z,20.37
2017-11-05T10:25:59.495Z,21.97
2017-11-05T10:28:26.648Z,21.50
2017-11-05T10:30:53.195Z,21.60
2017-11-05T10:33:19.644Z,22.20
2017-11-05T10:35:46.128Z,19.47
2017-11-05T10:38:13.437Z,22.77
2017-11-05T10:40:40.036Z,22.13
2017-11-05T10:43:06.536Z,23.33
2017-11-05T10:45:33.115Z,22.60
2017-11-05T10:47:59.501Z,21.50
2017-11-05T10:50:25.907Z,22.90
2017-11-05T10:52:52.320Z,19.83
2017-11-05T10:55:18.760Z,21.53
2017-11-05T10:57:45.234Z,23.27
2017-11-05T11:00:11.666Z,26.30
2017-11-05T11:02:38.084Z,21.23
2017-11-05T11:05:04.533Z,21.23
2017-11-05T11:07:30.952Z,25.43
2017-11-05T11:09:57.502Z,24.40
2017-11-05T11:12:23.894Z,22.70
2017-11-05T11:14:50.298Z,23.90
2017-11-05T11:17:17.544Z,21.67
2017-11-05T11:19:44.692Z,22.60
2017-11-05T11:22:11.823Z,22.50
2017-11-05T11:24:38.262Z,22.50
2017-11-05T11:27:04.664Z,22.77
2017-11-05T11:29:31.104Z,24.77
2017-11-05T11:31:57.832Z,24.00
2017-11-05T11:34:24.268Z,23.50
2017-11-05T11:36:50.684Z,24.80
2017-11-05T11:39:17.123Z,22.80
2017-11-05T11:41:43.527Z,21.47
2017-11-05T11:44:10.875Z,21.40
2017-11-05T11:46:37.332Z,20.53
2017-11-05T11:49:03.769Z,21.67
2017-11-05T11:51:30.164Z,21.57
2017-11-05T11:53:56.682Z,17.47
2017-11-05T11:56:23.104Z,18.60
2017-11-05T11:58:49.575Z,17.40
2017-11-05T12:01:16.824Z,17.70
2017-11-05T12:03:44.007Z,15.17
2017-11-05T12:06:10.529Z,17.50
2017-11-05T12:08:36.948Z,16.93
2017-11-05T12:11:04.827Z,17.20
2017-11-05T12:13:31.424Z,17.50
2017-11-05T12:15:57.808Z,16.87
2017-11-05T12:18:24.219Z,16.23
2017-11-05T12:20:51.573Z,17.97
2017-11-05T12:23:18.776Z,15.73
2017-11-05T12:25:45.376Z,14.97
2017-11-05T12:28:11.863Z,16.40
2017-11-05T12:30:38.335Z,15.17
2017-11-05T12:33:05.623Z,15.83
2017-11-05T12:35:32.356Z,16.83
2017-11-05T12:37:58.795Z,16.10
2017-11-05T12:40:25.264Z,15.80
2017-11-05T12:42:51.711Z,14.63
2017-11-05T12:45:18.864Z,15.00
2017-11-05T12:47:46.216Z,16.20
2017-11-05T12:50:13.369Z,15.27
2017-11-05T12:52:40.512Z,13.87
2017-11-05T12:55:06.923Z,15.67
2017-11-05T12:57:33.352Z,13.45
2017-11-05T12:59:59.799Z,14.53
2017-11-05T13:02:26.234Z,14.87
2017-11-05T13:04:52.631Z,13.60
2017-11-05T13:07:19.214Z,15.50
2017-11-05T13:09:46.763Z,13.57
2017-11-05T13:12:13.259Z,13.77
2017-11-05T13:14:40.001Z,13.90
2017-11-05T13:17:06.485Z,13.93
2017-11-05T13:19:32.932Z,14.60
2017-11-05T13:22:00.840Z,14.13
2017-11-05T13:24:27.297Z,14.53
2017-11-05T13:26:53.860Z,13.43
2017-11-05T13:29:21.060Z,14.33
2017-11-05T13:31:47.676Z,14.47
2017-11-05T13:34:14.357Z,13.30
2017-11-05T13:36:41.120Z,14.77
2017-11-05T13:39:07.809Z,15.27
2017-11-05T13:41:34.272Z,13.23
2017-11-05T13:44:00.704Z,14.07
2017-11-05T13:46:27.164Z,12.83
2017-11-05T13:48:54.390Z,14.60
2017-11-05T13:51:20.796Z,13.80
2017-11-05T13:53:47.228Z,13.33
2017-11-05T13:56:14.161Z,13.40
2017-11-05T13:58:41.428Z,15.10
2017-11-05T14:01:07.888Z,14.37
2017-11-05T14:03:34.344Z,13.80
2017-11-05T14:06:01.520Z,12.20
2017-11-05T14:08:27.983Z,11.33
2017-11-05T14:10:54.412Z,12.03
2017-11-05T14:13:21.244Z,11.80
2017-11-05T14:15:48.779Z,13.27
2017-11-05T14:18:15.919Z,12.37
2017-11-05T14:20:43.345Z,11.53
2017-11-05T14:23:09.932Z,11.60
2017-11-05T14:25:36.367Z,10.80
2017-11-05T14:28:03.628Z,10.87
2017-11-05T14:30:31.245Z,8.30
2017-11-05T14:32:58.882Z,7.33
2017-11-05T14:35:26.247Z,7.50
2017-11-05T14:37:53.460Z,5.60
2017-11-05T14:40:19.897Z,7.40
2017-11-05T14:42:46.531Z,5.73
2017-11-05T14:45:13.233Z,6.30
2017-11-05T14:47:40.456Z,6.43
2017-11-05T14:50:06.918Z,7.40
2017-11-05T14:52:34.101Z,6.10
2017-11-05T14:55:00.696Z,5.67
2017-11-05T14:57:27.116Z,6.57
2017-11-05T14:59:53.572Z,7.53
2017-11-05T15:02:20.771Z,6.50
2017-11-05T15:04:48.060Z,7.27
2017-11-05T15:07:14.485Z,6.43
2017-11-05T15:09:40.943Z,6.70
2017-11-05T15:12:08.125Z,6.67
2017-11-05T15:14:34.569Z,7.93
2017-11-05T15:17:01.027Z,9.60
2017-11-05T15:19:27.631Z,10.30
2017-11-05T15:21:54.072Z,12.00
2017-11-05T15:24:20.531Z,12.63
2017-11-05T15:26:46.992Z,12.20
2017-11-05T15:29:14.241Z,12.73
2017-11-05T15:31:41.503Z,13.63
2017-11-05T15:34:08.131Z,15.03
2017-11-05T15:36:35.358Z,18.23
2017-11-05T15:39:01.852Z,13.43
2017-11-05T15:41:28.291Z,29.33
2017-11-05T15:43:54.732Z,12.30
2017-11-05T15:46:21.165Z,18.87
2017-11-05T15:48:48.052Z,18.67
2017-11-05T15:51:15.280Z,10.60
2017-11-05T15:53:41.747Z,13.43
2017-11-05T15:56:08.912Z,13.77
2017-11-05T15:58:36.064Z,13.50
2017-11-05T16:01:02.532Z,13.70
2017-11-05T16:03:29.204Z,13.57
2017-11-05T16:05:55.677Z,15.37
2017-11-05T16:08:22.108Z,19.43
2017-11-05T16:10:48.563Z,25.40
2017-11-05T16:13:15.011Z,29.70
2017-11-05T16:15:41.439Z,37.70
2017-11-05T16:18:07.942Z,37.17
2017-11-05T16:20:34.585Z,37.07
2017-11-05T16:23:01.126Z,28.47
2017-11-05T16:25:28.308Z,27.10
2017-11-05T16:27:54.764Z,23.57
2017-11-05T16:30:21.501Z,22.10
2017-11-05T16:32:48.087Z,21.80
2017-11-05T16:35:17.656Z,21.67
2017-11-05T16:37:44.287Z,25.60
2017-11-05T16:40:11.461Z,20.10
2017-11-05T16:42:38.008Z,19.70
2017-11-05T16:45:04.417Z,20.40
2017-11-05T16:47:31.806Z,20.40
2017-11-05T16:49:58.339Z,19.60
2017-11-05T16:52:24.762Z,21.03
2017-11-05T16:54:51.169Z,21.10
2017-11-05T16:57:17.844Z,21.67
2017-11-05T16:59:44.321Z,23.63
2017-11-05T17:02:10.829Z,26.80
2017-11-05T17:04:37.293Z,25.93
2017-11-05T17:07:03.785Z,29.57
2017-11-05T17:09:30.276Z,23.90
2017-11-05T17:11:56.724Z,24.20
2017-11-05T17:14:23.900Z,24.90
2017-11-05T17:16:50.344Z,24.37
2017-11-05T17:19:17.568Z,28.40
2017-11-05T17:21:44.063Z,27.80
2017-11-05T17:24:10.567Z,26.90
2017-11-05T17:26:37.064Z,32.10
2017-11-05T17:29:12.214Z,25.23
2017-11-05T17:31:38.791Z,23.77
2017-11-05T17:34:05.363Z,28.03
2017-11-05T17:36:31.891Z,29.07
2017-11-05T17:38:59.081Z,29.20
2017-11-05T17:41:25.553Z,30.60
2017-11-05T17:43:51.963Z,29.23
2017-11-05T17:46:18.396Z,34.30
2017-11-05T17:48:44.856Z,28.00
2017-11-05T17:51:11.292Z,28.30
2017-11-05T17:53:37.729Z,27.03
2017-11-05T17:56:04.124Z,26.50
2017-11-05T17:58:30.548Z,24.27
2017-11-05T18:00:57.364Z,23.87
2017-11-05T18:03:23.900Z,23.13
2017-11-05T18:05:51.088Z,22.70
2017-11-05T18:08:17.492Z,21.00
2017-11-05T18:10:43.920Z,19.67
2017-11-05T18:13:11.111Z,19.63
2017-11-05T18:15:37.912Z,17.90
2017-11-05T18:18:04.428Z,21.10
2017-11-05T18:20:31.953Z,19.80
2017-11-05T18:22:58.515Z,21.50
2017-11-05T18:25:26.242Z,19.53
2017-11-05T18:27:52.841Z,17.07
2017-11-05T18:30:19.357Z,17.03
2017-11-05T18:32:46.536Z,18.20
2017-11-05T18:35:12.932Z,19.33
2017-11-05T18:37:39.357Z,16.67
2017-11-05T18:40:05.864Z,18.77
2017-11-05T18:42:32.330Z,16.40
2017-11-05T18:44:58.800Z,18.03
2017-11-05T18:47:25.266Z,17.20
2017-11-05T18:49:51.708Z,17.60
2017-11-05T18:52:18.116Z,17.90
2017-11-05T18:54:44.540Z,18.63
2017-11-05T18:57:10.941Z,19.07
2017-11-05T18:59:37.428Z,18.80
2017-11-05T19:02:03.921Z,17.10
2017-11-05T19:04:31.055Z,17.87
2017-11-05T19:06:57.512Z,16.60
2017-11-05T19:09:24.676Z,17.53
2017-11-05T19:11:51.108Z,17.53
2017-11-05T19:14:17.696Z,19.60
2017-11-05T19:16:44.090Z,17.60
2017-11-05T19:19:10.487Z,15.63
2017-11-05T19:21:37.712Z,17.70
2017-11-05T19:24:04.175Z,14.83
2017-11-05T19:26:31.389Z,14.77
2017-11-05T19:28:57.784Z,14.80
2017-11-05T19:31:24.397Z,15.23
2017-11-05T19:33:50.852Z,13.73
2017-11-05T19:36:17.292Z,14.90
2017-11-05T19:38:43.911Z,15.17
2017-11-05T19:41:10.513Z,18.73
2017-11-05T19:43:37.735Z,18.87
2017-11-05T19:46:04.151Z,18.40
2017-11-05T19:48:30.567Z,19.13
2017-11-05T19:50:57.782Z,17.43
2017-11-05T19:53:24.439Z,14.67
2017-11-05T19:55:51.113Z,16.90
2017-11-05T19:58:18.284Z,13.43
2017-11-05T20:00:44.686Z,13.13
2017-11-05T20:03:11.132Z,13.17
2017-11-05T20:05:37.772Z,14.47
2017-11-05T20:08:04.458Z,13.93
2017-11-05T20:10:31.619Z,12.87
2017-11-05T20:12:59.084Z,14.17
2017-11-05T20:15:25.544Z,12.00
2017-11-05T20:17:52.210Z,12.17
2017-11-05T20:20:18.680Z,13.87
2017-11-05T20:22:45.870Z,14.23
2017-11-05T20:25:14.369Z,15.20
2017-11-05T20:27:40.800Z,19.53
2017-11-05T20:30:07.543Z,24.03
2017-11-05T20:32:34.150Z,23.90
2017-11-05T20:35:00.820Z,33.70
2017-11-05T20:37:28.215Z,33.60
2017-11-05T20:39:54.629Z,37.20
2017-11-05T20:42:21.047Z,38.10
2017-11-05T20:44:47.451Z,31.00
2017-11-05T20:47:13.863Z,28.70
2017-11-05T20:49:40.701Z,30.53
2017-11-05T20:52:07.154Z,30.73
2017-11-05T20:54:34.325Z,24.77
2017-11-05T20:57:01.112Z,24.47
2017-11-05T20:59:27.805Z,26.60
2017-11-05T21:01:54.276Z,24.17
2017-11-05T21:04:20.671Z,23.27
2017-11-05T21:06:47.093Z,25.93
2017-11-05T21:09:13.532Z,25.80
2017-11-05T21:11:40.026Z,24.80
2017-11-05T21:14:06.484Z,29.90
2017-11-05T21:16:33.212Z,31.90
2017-11-05T21:18:59.776Z,27.63
2017-11-05T21:21:26.179Z,25.47
2017-11-05T21:23:53.340Z,24.97
2017-11-05T21:26:19.752Z,24.03
2017-11-05T21:28:46.887Z,25.37
2017-11-05T21:31:13.317Z,23.93
2017-11-05T21:33:39.759Z,24.83
2017-11-05T21:36:06.209Z,26.73
2017-11-05T21:38:33.579Z,25.40
2017-11-05T21:41:00.071Z,22.70
2017-11-05T21:43:27.262Z,25.83
2017-11-05T21:45:53.738Z,22.13
2017-11-05T21:48:20.337Z,23.93
2017-11-05T21:50:46.748Z,21.60
2017-11-05T21:53:13.925Z,23.07
2017-11-05T21:55:40.331Z,20.10
2017-11-05T21:58:07.516Z,20.10
2017-11-05T22:00:33.982Z,20.77
2017-11-05T22:03:00.404Z,18.43
2017-11-05T22:05:27.102Z,15.37
2017-11-05T22:07:53.708Z,12.83
2017-11-05T22:10:20.126Z,12.50
2017-11-05T22:12:46.608Z,12.07
2017-11-05T22:15:13.427Z,14.07
2017-11-05T22:17:47.277Z,10.83
2017-11-05T22:20:21.197Z,10.70
2017-11-05T22:22:53.232Z,11.93
2017-11-05T22:25:20.008Z,11.53
2017-11-05T22:27:46.404Z,12.77
2017-11-05T22:30:13.337Z,11.50
2017-11-05T22:32:39.751Z,11.03
2017-11-05T22:35:07.085Z,11.73
2017-11-05T22:37:33.820Z,11.77
2017-11-05T22:40:01.031Z,11.90
2017-11-05T22:42:28.011Z,11.43
2017-11-05T22:44:54.572Z,13.60
2017-11-05T22:47:22.420Z,12.30
2017-11-05T22:49:49.226Z,11.23
2017-11-05T22:52:16.016Z,11.80
2017-11-05T22:54:44.082Z,11.53
2017-11-05T22:57:11.563Z,11.70
2017-11-05T22:59:39.471Z,10.73
2017-11-05T23:02:06.086Z,14.60
2017-11-05T23:04:32.982Z,13.00
2017-11-05T23:06:59.396Z,11.43
2017-11-05T23:09:27.150Z,11.93
2017-11-05T23:11:55.103Z,13.23
2017-11-05T23:14:21.508Z,13.50
2017-11-05T23:16:48.712Z,12.70
2017-11-05T23:19:15.135Z,13.93
2017-11-05T23:21:41.718Z,12.87
2017-11-05T23:24:08.284Z,13.53
2017-11-05T23:26:34.808Z,12.40
2017-11-05T23:29:02.996Z,13.93
2017-11-05T23:31:32.011Z,14.07
2017-11-05T23:33:58.772Z,14.60
2017-11-05T23:36:26.837Z,14.83
2017-11-05T23:38:54.927Z,14.20
2017-11-05T23:41:23.785Z,14.60
2017-11-05T23:43:54.098Z,16.27
2017-11-05T23:46:24.880Z,15.23
2017-11-05T23:48:52.186Z,15.00
2017-11-05T23:51:24.208Z,15.40
2017-11-05T23:53:52.061Z,15.80
2017-11-05T23:56:22.314Z,15.03
2017-11-05T23:58:51.768Z,15.43
